Terminal Aerodrome Forecast
Issued by NWS Jackson, MS

Current Version | Previous Version | Text Only | Print | Product List | Glossary On
Versions: 1 2 3 4 5 6 7 8 9 10 11 12 13 14 15 16 17 18
000
FTUS44 KMEG 291740
TAFTUP
TAF
KTUP 291740Z 2918/3018 14009KT P6SM FEW060 SCT250
     FM291900 18010G16KT P6SM SCT250
     FM300000 17008KT P6SM BKN200
     FM301000 19011G17KT P6SM VCSH BKN015
     FM301700 22014G22KT P6SM VCTS SCT025 BKN050CB=

USA.gov is the U.S. government's official web portal to all federal, state and local government web resources and services.